Flight Track Log - Related Links

Times and Time Zones

All times are in EDT time to prevent confusion due to time zone crossing. See the TGW974 flight status page for this flight to view local times or setup timezone preferences in your user account.

Time Position Orientation Groundspeed Altitude Reporting Facility
EDT Latitude Longitude Course Direction KTS MPH feet Rate Location/Type
Mon 10:58:47 PM -37.6313 144.8308 352° North 166 191 3,100  Level Aus ATC (RADAR)
Mon 10:59:22 PM -37.5978 144.8245 20° North 216 249 4,600 3,225 Climbing Aus ATC (RADAR)
Mon 11:00:07 PM -37.5502 144.8464 26° Northeast 254 292 7,400 3,635 Climbing Aus ATC (RADAR)
Mon 11:01:06 PM -37.4839 144.8878 28° Northeast 276 318 10,900 2,917 Climbing Aus ATC (RADAR)
Mon 11:01:56 PM -37.4186 144.9315 37° Northeast 336 387 12,700 2,782 Climbing Aus ATC (RADAR)
Mon 11:02:56 PM -37.3431 145.0023 36° Northeast 346 398 16,000 3,055 Climbing Aus ATC (RADAR)
Mon 11:03:46 PM -37.2767 145.0628 36° Northeast 359 413 18,300 2,753 Climbing Aus ATC (RADAR)
Mon 11:04:21 PM -37.2294 145.1064 36° Northeast 365 420 19,900 2,625 Climbing Aus ATC (RADAR)
Mon 11:05:06 PM -37.1668 145.1637 36° Northeast 375 432 21,800 2,343 Climbing Aus ATC (RADAR)
Mon 11:06:06 PM -37.0816 145.2416 39° Northeast 386 444 24,000 1,900 Climbing Aus ATC (RADAR)
Mon 11:07:06 PM -36.9955 145.3298 40° Northeast 409 471 25,600 2,100 Climbing Aus ATC (RADAR)
Mon 11:08:06 PM -36.9094 145.4189 39° Northeast 400 460 28,200 1,771 Climbing Aus ATC (RADAR)
Mon 11:08:51 PM -36.8424 145.4869 40° Northeast 424 488 28,700 1,050 Climbing Aus ATC (RADAR)
Mon 11:09:26 PM -36.7889 145.5426 39° Northeast 431 496 29,600 1,275 Climbing Aus ATC (RADAR)
Mon 11:10:11 PM -36.7173 145.6157 39° Northeast 448 516 30,400 1,371 Climbing Aus ATC (RADAR)
Mon 11:11:11 PM -36.6205 145.7140 39° Northeast 452 520 32,000 1,468 Climbing Aus ATC (RADAR)
Mon 11:12:30 PM -36.4911 145.8460 40° Northeast 458 527 33,800 1,252 Climbing Aus ATC (RADAR)
Mon 11:13:30 PM -36.3929 145.9465 39° Northeast 463 533 34,900 1,080 Climbing Aus ATC (RADAR)
Mon 11:14:10 PM -36.3257 146.0141 39° Northeast 470 541 35,600 1,120 Climbing Aus ATC (RADAR)
Mon 11:14:45 PM -36.2666 146.0742 39° Northeast 474 545 36,300 1,114 Climbing Aus ATC (RADAR)
Mon 11:15:20 PM -36.2076 146.1336 40° Northeast 471 542 36,900 1,200 Climbing Aus ATC (RADAR)
Mon 11:15:55 PM -36.1488 146.1938 39° Northeast 471 542 37,700 1,200 Climbing Aus ATC (RADAR)
Mon 11:17:05 PM -36.0312 146.3111 39° Northeast 464 534 39,000 960 Climbing Aus ATC (RADAR)
Mon 11:17:35 PM -35.9810 146.3613 39° Northeast 465 535 39,300 200 Climbing Aus ATC (RADAR)
Mon 11:18:35 PM -35.8802 146.4615 39° Northeast 468 539 39,300  Level Aus ATC (RADAR)
Mon 11:19:20 PM -35.8041 146.5369 39° Northeast 468 539 39,300  Level Aus ATC (RADAR)
Mon 11:19:55 PM -35.7446 146.5960 39° Northeast 470 541 39,300  Level Aus ATC (RADAR)
Mon 11:20:40 PM -35.6682 146.6716 39° Northeast 470 541 39,300  Level Aus ATC (RADAR)
Mon 11:22:10 PM -35.5149 146.8230 38° Northeast 471 542 39,300  Level Aus ATC (RADAR)
Mon 11:23:00 PM -35.4288 146.9066 39° Northeast 474 545 39,300  Level Aus ATC (RADAR)
Mon 11:23:35 PM -35.3686 146.9660 38° Northeast 476 548 39,300  Level Aus ATC (RADAR)
Mon 11:24:19 PM -35.2906 147.0418 38° Northeast 478 550 39,300  Level Aus ATC (RADAR)
Mon 11:24:54 PM -35.2298 147.1007 39° Northeast 478 550 39,300  Level Aus ATC (RADAR)
Mon 11:25:29 PM -35.1686 147.1610 38° Northeast 478 550 39,300  Level Aus ATC (RADAR)
Mon 11:26:04 PM -35.1076 147.2203 38° Northeast 479 551 39,300  Level Aus ATC (RADAR)
Mon 11:27:09 PM -34.9938 147.3301 38° Northeast 482 555 39,300  Level Aus ATC (RADAR)
Mon 11:27:54 PM -34.9147 147.4058 38° Northeast 482 555 39,300  Level Aus ATC (RADAR)
Mon 11:28:29 PM -34.8533 147.4651 38° Northeast 482 555 39,300  Level Aus ATC (RADAR)
Mon 11:29:14 PM -34.7744 147.5409 38° Northeast 482 555 39,300  Level Aus ATC (RADAR)
Mon 11:29:49 PM -34.7130 147.5995 38° Northeast 479 551 39,300  Level Aus ATC (RADAR)
Mon 11:30:24 PM -34.6513 147.6584 38° Northeast 484 557 39,300  Level Aus ATC (RADAR)
Mon 11:31:04 PM -34.5812 147.7256 38° Northeast 478 550 39,300  Level Aus ATC (RADAR)
Mon 11:31:39 PM -34.5191 147.7844 38° Northeast 485 558 39,300  Level Aus ATC (RADAR)
Mon 11:33:14 PM -34.3508 147.9444 38° Northeast 484 557 39,300 -39 Level Aus ATC (RADAR)
Mon 11:34:14 PM -34.2441 148.0447 38° Northeast 485 558 39,200 -57 Descending Aus ATC (RADAR)
Mon 11:34:59 PM -34.1641 148.1202 38° Northeast 485 558 39,200  Level Aus ATC (RADAR)
Mon 11:35:34 PM -34.1020 148.1787 38° Northeast 484 557 39,200 73 Level Aus ATC (RADAR)
Mon 11:36:21 PM -34.0177 148.2582 38° Northeast 490 564 39,300 47 Climbing Aus ATC (RADAR)
Mon 11:37:41 PM -33.8751 148.3911 38° Northeast 487 560 39,300  Level Aus ATC (RADAR)
Mon 11:38:16 PM -33.8119 148.4495 38° Northeast 491 565 39,300  Level Aus ATC (RADAR)
Mon 11:38:51 PM -33.7495 148.5079 38° Northeast 490 564 39,300  Level Aus ATC (RADAR)
Mon 11:39:36 PM -33.6690 148.5826 38° Northeast 489 563 39,300  Level Aus ATC (RADAR)
Mon 11:40:36 PM -33.5615 148.6825 37° Northeast 490 564 39,300  Level Aus ATC (RADAR)
Mon 11:41:20 PM -33.4804 148.7570 37° Northeast 489 563 39,300  Level Aus ATC (RADAR)
Mon 11:41:55 PM -33.4169 148.8152 38° Northeast 493 567 39,300  Level Aus ATC (RADAR)
Mon 11:43:00 PM -33.3016 148.9218 37° Northeast 492 566 39,300  Level Aus ATC (RADAR)
Mon 11:44:00 PM -33.1932 149.0211 37° Northeast 493 567 39,300  Level Aus ATC (RADAR)
Mon 11:44:45 PM -33.1111 149.0962 37° Northeast 494 568 39,300  Level Aus ATC (RADAR)
Mon 11:45:20 PM -33.0474 149.1538 37° Northeast 493 567 39,300  Level Aus ATC (RADAR)
Mon 11:45:55 PM -32.9837 149.2117 37° Northeast 496 571 39,300  Level Aus ATC (RADAR)
Mon 11:46:30 PM -32.9200 149.2689 37° Northeast 494 568 39,300  Level Aus ATC (RADAR)
Mon 11:47:05 PM -32.8564 149.3264 37° Northeast 494 568 39,300  Level Aus ATC (RADAR)
Mon 11:48:10 PM -32.7380 149.4336 37° Northeast 495 570 39,300  Level Aus ATC (RADAR)
Mon 11:49:10 PM -32.6286 149.5319 37° Northeast 495 570 39,300  Level Aus ATC (RADAR)
Mon 11:49:55 PM -32.5466 149.6058 36° Northeast 496 571 39,300  Level Aus ATC (RADAR)
Mon 11:50:30 PM -32.4814 149.6611 35° Northeast 496 571 39,300  Level Aus ATC (RADAR)
Mon 11:51:15 PM -32.3969 149.7307 35° Northeast 495 570 39,300  Level Aus ATC (RADAR)
Mon 11:52:14 PM -32.2853 149.8243 35° Northeast 493 567 39,300  Level Aus ATC (RADAR)
Mon 11:53:14 PM -32.1738 149.9176 35° Northeast 492 566 39,300  Level Aus ATC (RADAR)
Mon 11:54:14 PM -32.0624 150.0103 35° Northeast 491 565 39,300  Level Aus ATC (RADAR)
Mon 11:54:59 PM -31.9789 150.0800 35° Northeast 491 565 39,300  Level Aus ATC (RADAR)
Mon 11:55:34 PM -31.9135 150.1343 35° Northeast 494 568 39,300  Level Aus ATC (RADAR)
Mon 11:56:19 PM -31.8299 150.2036 35° Northeast 494 568 39,300  Level Aus ATC (RADAR)
Mon 11:57:19 PM -31.7184 150.2954 35° Northeast 490 564 39,300  Level Aus ATC (RADAR)
Mon 11:58:28 PM -31.5934 150.3981 35° Northeast 482 555 39,300  Level Aus ATC (RADAR)
Mon 11:59:18 PM -31.5001 150.4748 35° Northeast 480 552 39,300  Level Aus ATC (RADAR)
Tue 12:00:09 AM -31.4028 150.5549 35° Northeast 491 565 39,300  Level Aus ATC (RADAR)
Tue 12:00:44 AM -31.3379 150.6081 35° Northeast 492 566 39,300  Level Aus ATC (RADAR)
Tue 12:01:39 AM -31.2361 150.6915 34° Northeast 490 564 39,300  Level Aus ATC (RADAR)
Tue 12:02:14 AM -31.1708 150.7439 39° Northeast 490 564 39,300  Level Aus ATC (RADAR)
Tue 12:03:52 AM -30.9993 150.9072 47° Northeast 486 559 39,300  Level Aus ATC (RADAR)
Tue 12:04:44 AM -30.9168 151.0110 46° Northeast 500 575 39,300  Level Aus ATC (RADAR)
Tue 12:05:52 AM -30.8091 151.1422 46° Northeast 488 562 39,300  Level Aus ATC (RADAR)
Tue 12:06:28 AM -30.7490 151.2151 46° Northeast 502 578 39,300  Level Aus ATC (RADAR)
Tue 12:07:07 AM -30.6886 151.2876 46° Northeast 490 564 39,300  Level Aus ATC (RADAR)
Tue 12:08:07 AM -30.5925 151.4038 46° Northeast 488 562 39,300  Level Aus ATC (RADAR)
Tue 12:08:38 AM -30.5405 151.4671 46° Northeast 502 578 39,300  Level Aus ATC (RADAR)
Tue 12:09:43 AM -30.4361 151.5928 46° Northeast 504 580 39,300  Level Aus ATC (RADAR)
Tue 12:10:33 AM -30.3551 151.6895 46° Northeast 505 581 39,300  Level Aus ATC (RADAR)
Tue 12:11:08 AM -30.2993 151.7560 46° Northeast 502 578 39,300  Level Aus ATC (RADAR)
Tue 12:11:58 AM -30.2185 151.8522 46° Northeast 497 572 39,300  Level Aus ATC (RADAR)
Tue 12:12:33 AM -30.1621 151.9198 46° Northeast 501 577 39,300  Level Aus ATC (RADAR)
Tue 12:13:48 AM -30.0410 152.0639 46° Northeast 502 578 39,300  Level Aus ATC (RADAR)
Tue 12:14:50 AM -29.9476 152.1744 46° Northeast 485 558 39,300  Level Aus ATC (RADAR)
Tue 12:15:33 AM -29.8719 152.2645 46° Northeast 504 580 39,300  Level Aus ATC (RADAR)
Tue 12:16:08 AM -29.8155 152.3313 46° Northeast 498 573 39,300 -141 Level Aus ATC (RADAR)
Tue 12:16:58 AM -29.7349 152.4265 46° Northeast 503 579 39,100 -1,209 Descending Aus ATC (RADAR)
Tue 12:18:17 AM -29.6058 152.5782 45° Northeast 503 579 36,700 -2,061 Descending Aus ATC (RADAR)
Tue 12:19:09 AM -29.5268 152.6687 45° Northeast 485 558 34,600 -2,629 Descending Aus ATC (RADAR)
Tue 12:19:46 AM -29.4598 152.7460 47° Northeast 491 565 32,800 -2,727 Descending Aus ATC (RADAR)
Tue 12:20:37 AM -29.3725 152.8519 44° Northeast 516 594 30,600 -2,512 Descending Aus ATC (RADAR)
Tue 12:21:12 AM -29.3142 152.9171 45° Northeast 501 577 29,200 -2,400 Descending Aus ATC (RADAR)
Tue 12:22:12 AM -29.2168 153.0301 45° Northeast 498 573 26,800 -2,200 Descending Aus ATC (RADAR)
Tue 12:22:42 AM -29.1692 153.0852 45° Northeast 484 557 25,900 -2,415 Descending Aus ATC (RADAR)
Tue 12:24:56 AM -28.9720 153.3099 45° Northeast 420 483 20,200 -2,553 Descending Aus ATC (RADAR)
Tue 12:25:50 AM -28.8955 153.3972 39° Northeast 403 464 17,900 -2,372 Descending Aus ATC (RADAR)
Tue 12:27:05 AM -28.7879 153.4954 16° North 372 428 15,100 -2,432 Descending Aus ATC (RADAR)
Tue 12:27:41 AM -28.7216 153.5165 21° North 383 441 13,400 -2,000 Descending Aus ATC (RADAR)
Tue 12:29:11 AM -28.5837 153.5771 22° Northeast 357 411 10,900 -1,388 Descending Aus ATC (RADAR)
Tue 12:29:55 AM -28.5239 153.6043 18° North 315 362 10,300 -1,137 Descending Aus ATC (RADAR)
Tue 12:30:46 AM -28.4552 153.6295 18° North 292 336 9,100 -1,075 Descending Aus ATC (RADAR)
Tue 12:31:41 AM -28.3884 153.6539 18° North 265 305 8,400 -695 Descending Aus ATC (RADAR)
Tue 12:32:21 AM -28.3450 153.6703 18° North 245 282 8,000 -1,059 Descending Aus ATC (RADAR)
Tue 12:33:06 AM -28.2977 153.6882 345° North 239 275 6,900 -1,500 Descending Aus ATC (RADAR)
Tue 12:34:01 AM -28.2390 153.6706 332° Northwest 252 290 5,500 -1,500 Descending Aus ATC (RADAR)
Tue 12:34:46 AM -28.1923 153.6429 334° Northwest 253 291 4,400 -1,350 Descending Aus ATC (RADAR)
Tue 12:35:21 AM -28.1552 153.6222 330° Northwest 252 290 3,700 -1,271 Descending Aus ATC (RADAR)
Tue 12:36:11 AM -28.1048 153.5897 292° West 248 285 2,600 -988 Descending Aus ATC (RADAR)
Tue 12:36:46 AM -28.0898 153.5471 271° West 238 274 2,300 -706 Descending Aus ATC (RADAR)
Tue 12:37:36 AM -28.0893 153.4919 231° Southwest 205 236 1,600 -675 Descending Aus ATC (RADAR)
Tue 12:38:06 AM -28.1042 153.4707 155° Southeast 170 196 1,400 -702 Descending Aus ATC (RADAR)
Tue 12:39:10 AM -28.1389 153.4892 151° Southeast 114 131 500 -766 Descending Aus ATC (RADAR)
Tue 12:39:40 AM -28.1528 153.4979 151° Southeast 112 129 200 -369 Descending Aus ATC (RADAR)
Tue 12:40:15 AM -28.1670 153.5070 151° Southeast 81 93 100 -171 Descending Aus ATC (RADAR)

Login

Don't have an account? Register now (free) for customized features, flight alerts, and more!